sensor_id;sensor_type;location;lat;lon;timestamp;P1;durP1;ratioP1;P2;durP2;ratioP2
577;SDS011;275;48.492;9.214;2023-01-16T00:01:18;8.80;;;4.97;;
577;SDS011;275;48.492;9.214;2023-01-16T00:03:46;12.88;;;5.78;;
577;SDS011;275;48.492;9.214;2023-01-16T00:06:13;7.00;;;3.80;;
577;SDS011;275;48.492;9.214;2023-01-16T00:08:40;6.10;;;3.33;;
577;SDS011;275;48.492;9.214;2023-01-16T00:11:07;6.22;;;4.20;;
577;SDS011;275;48.492;9.214;2023-01-16T00:13:34;7.38;;;2.58;;
577;SDS011;275;48.492;9.214;2023-01-16T00:16:02;6.65;;;3.85;;
577;SDS011;275;48.492;9.214;2023-01-16T00:18:29;6.93;;;3.50;;
577;SDS011;275;48.492;9.214;2023-01-16T00:20:56;7.20;;;3.78;;
577;SDS011;275;48.492;9.214;2023-01-16T00:23:23;6.68;;;3.75;;
577;SDS011;275;48.492;9.214;2023-01-16T00:25:49;6.00;;;3.35;;
577;SDS011;275;48.492;9.214;2023-01-16T00:28:16;5.15;;;3.30;;
577;SDS011;275;48.492;9.214;2023-01-16T00:30:44;9.18;;;3.25;;
577;SDS011;275;48.492;9.214;2023-01-16T00:33:12;4.20;;;2.58;;
577;SDS011;275;48.492;9.214;2023-01-16T00:35:39;5.45;;;3.00;;
577;SDS011;275;48.492;9.214;2023-01-16T00:38:06;5.40;;;2.65;;
577;SDS011;275;48.492;9.214;2023-01-16T00:40:32;4.25;;;2.78;;
577;SDS011;275;48.492;9.214;2023-01-16T00:42:59;4.93;;;2.78;;
577;SDS011;275;48.492;9.214;2023-01-16T00:45:26;5.43;;;2.60;;
577;SDS011;275;48.492;9.214;2023-01-16T00:47:53;5.05;;;2.60;;
577;SDS011;275;48.492;9.214;2023-01-16T00:50:21;6.35;;;2.67;;
577;SDS011;275;48.492;9.214;2023-01-16T00:52:48;5.97;;;3.83;;
577;SDS011;275;48.492;9.214;2023-01-16T00:55:15;5.00;;;3.10;;
577;SDS011;275;48.492;9.214;2023-01-16T00:57:41;7.63;;;3.80;;
577;SDS011;275;48.492;9.214;2023-01-16T01:00:09;7.20;;;3.95;;
577;SDS011;275;48.492;9.214;2023-01-16T01:02:36;7.00;;;3.40;;
577;SDS011;275;48.492;9.214;2023-01-16T01:05:04;5.35;;;2.90;;
577;SDS011;275;48.492;9.214;2023-01-16T01:07:33;4.45;;;2.15;;
577;SDS011;275;48.492;9.214;2023-01-16T01:10:00;6.00;;;2.25;;
577;SDS011;275;48.492;9.214;2023-01-16T01:12:27;4.60;;;2.00;;
577;SDS011;275;48.492;9.214;2023-01-16T01:14:53;4.35;;;2.50;;
577;SDS011;275;48.492;9.214;2023-01-16T01:17:20;3.65;;;2.10;;
577;SDS011;275;48.492;9.214;2023-01-16T01:19:47;5.75;;;1.75;;
577;SDS011;275;48.492;9.214;2023-01-16T01:22:15;4.43;;;1.63;;
577;SDS011;275;48.492;9.214;2023-01-16T01:24:46;3.40;;;2.08;;
577;SDS011;275;48.492;9.214;2023-01-16T01:27:14;3.10;;;1.80;;
577;SDS011;275;48.492;9.214;2023-01-16T01:29:41;3.50;;;1.90;;
577;SDS011;275;48.492;9.214;2023-01-16T01:32:08;3.85;;;1.92;;
577;SDS011;275;48.492;9.214;2023-01-16T01:34:35;3.08;;;1.73;;
577;SDS011;275;48.492;9.214;2023-01-16T01:37:02;3.42;;;1.80;;
577;SDS011;275;48.492;9.214;2023-01-16T01:39:30;5.03;;;1.98;;
577;SDS011;275;48.492;9.214;2023-01-16T01:41:58;3.85;;;1.80;;
577;SDS011;275;48.492;9.214;2023-01-16T01:44:49;4.47;;;1.70;;
577;SDS011;275;48.492;9.214;2023-01-16T01:47:20;4.57;;;2.50;;
577;SDS011;275;48.492;9.214;2023-01-16T01:49:49;6.07;;;2.35;;
577;SDS011;275;48.492;9.214;2023-01-16T01:52:17;5.50;;;2.28;;
577;SDS011;275;48.492;9.214;2023-01-16T01:54:47;4.03;;;2.08;;
577;SDS011;275;48.492;9.214;2023-01-16T01:57:21;4.60;;;2.17;;
577;SDS011;275;48.492;9.214;2023-01-16T01:59:53;3.88;;;1.75;;
577;SDS011;275;48.492;9.214;2023-01-16T02:02:23;4.32;;;1.67;;
577;SDS011;275;48.492;9.214;2023-01-16T02:04:54;7.30;;;2.25;;
577;SDS011;275;48.492;9.214;2023-01-16T02:07:22;3.47;;;1.90;;
577;SDS011;275;48.492;9.214;2023-01-16T02:09:52;4.20;;;1.92;;
577;SDS011;275;48.492;9.214;2023-01-16T02:12:26;5.63;;;2.50;;
577;SDS011;275;48.492;9.214;2023-01-16T02:14:53;6.82;;;2.20;;
577;SDS011;275;48.492;9.214;2023-01-16T02:17:21;3.75;;;2.28;;
577;SDS011;275;48.492;9.214;2023-01-16T02:26:10;5.95;;;2.00;;
577;SDS011;275;48.492;9.214;2023-01-16T02:29:04;3.42;;;1.90;;
577;SDS011;275;48.492;9.214;2023-01-16T02:31:57;4.15;;;1.83;;
577;SDS011;275;48.492;9.214;2023-01-16T02:34:36;4.90;;;2.85;;
577;SDS011;275;48.492;9.214;2023-01-16T02:37:23;3.97;;;1.80;;
577;SDS011;275;48.492;9.214;2023-01-16T02:39:59;3.25;;;1.90;;
577;SDS011;275;48.492;9.214;2023-01-16T02:42:37;4.15;;;2.00;;
577;SDS011;275;48.492;9.214;2023-01-16T02:45:10;4.07;;;1.85;;
577;SDS011;275;48.492;9.214;2023-01-16T02:47:46;4.28;;;2.40;;
577;SDS011;275;48.492;9.214;2023-01-16T02:50:22;3.88;;;1.75;;
577;SDS011;275;48.492;9.214;2023-01-16T02:52:56;3.00;;;1.70;;
577;SDS011;275;48.492;9.214;2023-01-16T02:55:28;3.67;;;1.50;;
577;SDS011;275;48.492;9.214;2023-01-16T02:58:00;5.03;;;1.95;;
577;SDS011;275;48.492;9.214;2023-01-16T03:00:29;3.60;;;1.40;;
577;SDS011;275;48.492;9.214;2023-01-16T03:02:57;3.22;;;1.50;;
577;SDS011;275;48.492;9.214;2023-01-16T03:05:25;3.90;;;2.05;;
577;SDS011;275;48.492;9.214;2023-01-16T03:08:00;3.97;;;1.92;;
577;SDS011;275;48.492;9.214;2023-01-16T03:10:57;3.28;;;1.70;;
577;SDS011;275;48.492;9.214;2023-01-16T03:13:41;3.45;;;1.50;;
577;SDS011;275;48.492;9.214;2023-01-16T03:16:20;9.10;;;1.80;;
577;SDS011;275;48.492;9.214;2023-01-16T03:18:57;3.83;;;1.60;;
577;SDS011;275;48.492;9.214;2023-01-16T03:21:41;6.82;;;1.75;;
577;SDS011;275;48.492;9.214;2023-01-16T03:24:17;4.22;;;2.05;;
577;SDS011;275;48.492;9.214;2023-01-16T03:26:54;3.53;;;1.65;;
577;SDS011;275;48.492;9.214;2023-01-16T03:29:26;2.60;;;1.40;;
577;SDS011;275;48.492;9.214;2023-01-16T03:32:00;2.60;;;1.73;;
577;SDS011;275;48.492;9.214;2023-01-16T03:34:34;3.83;;;1.75;;
577;SDS011;275;48.492;9.214;2023-01-16T03:37:09;3.33;;;1.50;;
577;SDS011;275;48.492;9.214;2023-01-16T03:39:39;5.00;;;2.05;;
577;SDS011;275;48.492;9.214;2023-01-16T03:42:12;4.93;;;1.70;;
577;SDS011;275;48.492;9.214;2023-01-16T03:44:42;4.05;;;1.95;;
577;SDS011;275;48.492;9.214;2023-01-16T03:47:16;2.70;;;1.50;;
577;SDS011;275;48.492;9.214;2023-01-16T03:49:51;4.70;;;1.40;;
577;SDS011;275;48.492;9.214;2023-01-16T03:52:22;3.20;;;1.30;;
577;SDS011;275;48.492;9.214;2023-01-16T03:54:55;5.65;;;1.70;;
577;SDS011;275;48.492;9.214;2023-01-16T03:57:29;3.72;;;1.80;;
577;SDS011;275;48.492;9.214;2023-01-16T03:59:59;5.47;;;1.70;;
577;SDS011;275;48.492;9.214;2023-01-16T04:02:27;3.28;;;1.63;;
577;SDS011;275;48.492;9.214;2023-01-16T04:05:05;3.20;;;1.63;;
577;SDS011;275;48.492;9.214;2023-01-16T04:07:36;3.30;;;1.52;;
577;SDS011;275;48.492;9.214;2023-01-16T04:10:09;2.53;;;1.45;;
577;SDS011;275;48.492;9.214;2023-01-16T04:12:40;2.70;;;1.63;;
577;SDS011;275;48.492;9.214;2023-01-16T04:15:10;4.03;;;1.70;;
577;SDS011;275;48.492;9.214;2023-01-16T04:17:37;4.38;;;2.00;;
577;SDS011;275;48.492;9.214;2023-01-16T04:20:08;5.03;;;2.05;;
577;SDS011;275;48.492;9.214;2023-01-16T04:22:36;4.75;;;1.80;;
577;SDS011;275;48.492;9.214;2023-01-16T04:25:04;4.15;;;2.00;;
577;SDS011;275;48.492;9.214;2023-01-16T04:27:33;3.10;;;1.65;;
577;SDS011;275;48.492;9.214;2023-01-16T04:30:00;4.28;;;1.70;;
577;SDS011;275;48.492;9.214;2023-01-16T04:32:27;5.07;;;1.80;;
577;SDS011;275;48.492;9.214;2023-01-16T04:34:54;4.95;;;1.83;;
577;SDS011;275;48.492;9.214;2023-01-16T04:37:22;4.82;;;1.80;;
577;SDS011;275;48.492;9.214;2023-01-16T04:39:49;3.30;;;1.95;;
577;SDS011;275;48.492;9.214;2023-01-16T04:42:16;5.50;;;1.92;;
577;SDS011;275;48.492;9.214;2023-01-16T04:44:42;3.17;;;1.77;;
577;SDS011;275;48.492;9.214;2023-01-16T04:47:09;3.50;;;1.55;;
577;SDS011;275;48.492;9.214;2023-01-16T04:49:36;4.30;;;2.10;;
577;SDS011;275;48.492;9.214;2023-01-16T04:52:03;4.25;;;2.00;;
577;SDS011;275;48.492;9.214;2023-01-16T04:54:32;3.45;;;1.80;;
577;SDS011;275;48.492;9.214;2023-01-16T04:56:58;3.63;;;1.67;;
577;SDS011;275;48.492;9.214;2023-01-16T04:59:26;2.88;;;1.23;;
577;SDS011;275;48.492;9.214;2023-01-16T05:01:53;3.30;;;1.60;;
577;SDS011;275;48.492;9.214;2023-01-16T05:04:20;3.88;;;1.55;;
577;SDS011;275;48.492;9.214;2023-01-16T05:06:47;5.80;;;1.73;;
577;SDS011;275;48.492;9.214;2023-01-16T05:09:14;3.03;;;1.85;;
577;SDS011;275;48.492;9.214;2023-01-16T05:11:42;3.13;;;1.75;;
577;SDS011;275;48.492;9.214;2023-01-16T05:14:08;8.40;;;2.17;;
577;SDS011;275;48.492;9.214;2023-01-16T05:16:36;5.05;;;1.85;;
577;SDS011;275;48.492;9.214;2023-01-16T05:19:03;3.38;;;2.22;;
577;SDS011;275;48.492;9.214;2023-01-16T05:21:30;4.55;;;2.03;;
577;SDS011;275;48.492;9.214;2023-01-16T05:23:57;6.18;;;2.30;;
577;SDS011;275;48.492;9.214;2023-01-16T05:26:24;4.38;;;1.98;;
577;SDS011;275;48.492;9.214;2023-01-16T05:28:52;3.58;;;2.10;;
577;SDS011;275;48.492;9.214;2023-01-16T05:31:22;5.47;;;2.33;;
577;SDS011;275;48.492;9.214;2023-01-16T05:33:49;4.32;;;2.10;;
577;SDS011;275;48.492;9.214;2023-01-16T05:36:16;4.07;;;2.28;;
577;SDS011;275;48.492;9.214;2023-01-16T05:38:43;4.05;;;2.53;;
577;SDS011;275;48.492;9.214;2023-01-16T05:41:11;3.63;;;2.08;;
577;SDS011;275;48.492;9.214;2023-01-16T05:43:38;3.97;;;2.30;;
577;SDS011;275;48.492;9.214;2023-01-16T05:46:06;4.32;;;2.10;;
577;SDS011;275;48.492;9.214;2023-01-16T05:48:33;4.80;;;2.50;;
577;SDS011;275;48.492;9.214;2023-01-16T05:51:00;3.83;;;2.25;;
577;SDS011;275;48.492;9.214;2023-01-16T05:53:28;4.40;;;2.53;;
577;SDS011;275;48.492;9.214;2023-01-16T05:55:56;3.78;;;2.13;;
577;SDS011;275;48.492;9.214;2023-01-16T05:58:23;4.55;;;2.30;;
577;SDS011;275;48.492;9.214;2023-01-16T06:00:50;5.32;;;2.65;;
577;SDS011;275;48.492;9.214;2023-01-16T06:03:18;4.72;;;2.47;;
577;SDS011;275;48.492;9.214;2023-01-16T06:05:46;4.55;;;2.22;;
577;SDS011;275;48.492;9.214;2023-01-16T06:08:13;3.55;;;2.30;;
577;SDS011;275;48.492;9.214;2023-01-16T06:10:40;4.20;;;2.35;;
577;SDS011;275;48.492;9.214;2023-01-16T06:13:09;3.05;;;1.80;;
577;SDS011;275;48.492;9.214;2023-01-16T06:15:36;5.30;;;1.95;;
577;SDS011;275;48.492;9.214;2023-01-16T06:18:03;3.42;;;1.88;;
577;SDS011;275;48.492;9.214;2023-01-16T06:20:31;7.60;;;3.33;;
577;SDS011;275;48.492;9.214;2023-01-16T06:22:57;4.90;;;3.20;;
577;SDS011;275;48.492;9.214;2023-01-16T06:25:24;4.15;;;2.10;;
577;SDS011;275;48.492;9.214;2023-01-16T06:27:51;4.70;;;2.55;;
577;SDS011;275;48.492;9.214;2023-01-16T06:30:18;4.18;;;2.22;;
577;SDS011;275;48.492;9.214;2023-01-16T06:32:47;3.90;;;2.90;;
577;SDS011;275;48.492;9.214;2023-01-16T06:35:15;5.75;;;3.60;;
577;SDS011;275;48.492;9.214;2023-01-16T06:37:43;4.50;;;3.17;;
577;SDS011;275;48.492;9.214;2023-01-16T06:40:10;4.88;;;3.13;;
577;SDS011;275;48.492;9.214;2023-01-16T06:42:37;5.20;;;2.45;;
577;SDS011;275;48.492;9.214;2023-01-16T06:45:04;4.10;;;3.08;;
577;SDS011;275;48.492;9.214;2023-01-16T06:47:31;3.60;;;2.25;;
577;SDS011;275;48.492;9.214;2023-01-16T06:49:58;6.03;;;2.88;;
577;SDS011;275;48.492;9.214;2023-01-16T06:52:25;4.13;;;2.55;;
577;SDS011;275;48.492;9.214;2023-01-16T06:54:53;5.18;;;2.92;;
577;SDS011;275;48.492;9.214;2023-01-16T06:57:20;4.22;;;2.72;;
577;SDS011;275;48.492;9.214;2023-01-16T06:59:47;5.60;;;2.80;;
577;SDS011;275;48.492;9.214;2023-01-16T07:02:15;3.80;;;2.60;;
577;SDS011;275;48.492;9.214;2023-01-16T07:04:42;4.22;;;2.38;;
577;SDS011;275;48.492;9.214;2023-01-16T07:07:09;3.50;;;2.30;;
577;SDS011;275;48.492;9.214;2023-01-16T07:09:36;3.63;;;2.25;;
577;SDS011;275;48.492;9.214;2023-01-16T07:12:04;3.75;;;3.15;;
577;SDS011;275;48.492;9.214;2023-01-16T07:14:31;6.53;;;2.45;;
577;SDS011;275;48.492;9.214;2023-01-16T07:17:15;5.05;;;1.83;;
577;SDS011;275;48.492;9.214;2023-01-16T07:20:02;4.35;;;2.03;;
577;SDS011;275;48.492;9.214;2023-01-16T07:22:47;3.35;;;1.98;;
577;SDS011;275;48.492;9.214;2023-01-16T07:25:14;4.00;;;2.08;;
577;SDS011;275;48.492;9.214;2023-01-16T07:27:47;4.00;;;2.45;;
577;SDS011;275;48.492;9.214;2023-01-16T07:30:15;3.63;;;1.90;;
577;SDS011;275;48.492;9.214;2023-01-16T07:32:43;3.97;;;1.83;;
577;SDS011;275;48.492;9.214;2023-01-16T07:35:11;3.22;;;1.95;;
577;SDS011;275;48.492;9.214;2023-01-16T07:37:38;4.22;;;2.22;;
577;SDS011;275;48.492;9.214;2023-01-16T07:40:05;4.18;;;1.80;;
577;SDS011;275;48.492;9.214;2023-01-16T07:42:33;3.42;;;1.70;;
577;SDS011;275;48.492;9.214;2023-01-16T07:45:01;3.85;;;1.98;;
577;SDS011;275;48.492;9.214;2023-01-16T07:47:28;3.10;;;2.08;;
577;SDS011;275;48.492;9.214;2023-01-16T07:49:55;6.75;;;2.70;;
577;SDS011;275;48.492;9.214;2023-01-16T07:52:23;3.88;;;2.30;;
577;SDS011;275;48.492;9.214;2023-01-16T07:54:50;3.15;;;1.50;;
577;SDS011;275;48.492;9.214;2023-01-16T07:57:17;2.92;;;2.28;;
577;SDS011;275;48.492;9.214;2023-01-16T07:59:44;3.10;;;1.45;;
577;SDS011;275;48.492;9.214;2023-01-16T08:02:12;3.22;;;2.30;;
577;SDS011;275;48.492;9.214;2023-01-16T08:04:39;3.85;;;2.30;;
577;SDS011;275;48.492;9.214;2023-01-16T08:07:05;3.25;;;1.98;;
577;SDS011;275;48.492;9.214;2023-01-16T08:09:32;2.88;;;1.90;;
577;SDS011;275;48.492;9.214;2023-01-16T08:11:59;2.70;;;1.75;;
577;SDS011;275;48.492;9.214;2023-01-16T08:14:26;5.10;;;2.75;;
577;SDS011;275;48.492;9.214;2023-01-16T08:16:53;4.25;;;2.50;;
577;SDS011;275;48.492;9.214;2023-01-16T08:19:21;3.00;;;2.05;;
577;SDS011;275;48.492;9.214;2023-01-16T08:21:48;2.78;;;1.85;;
577;SDS011;275;48.492;9.214;2023-01-16T08:24:14;5.15;;;2.33;;
577;SDS011;275;48.492;9.214;2023-01-16T08:26:42;4.38;;;2.35;;
577;SDS011;275;48.492;9.214;2023-01-16T08:29:09;5.15;;;2.05;;
577;SDS011;275;48.492;9.214;2023-01-16T08:31:36;4.22;;;2.55;;
577;SDS011;275;48.492;9.214;2023-01-16T08:34:03;3.47;;;1.60;;
577;SDS011;275;48.492;9.214;2023-01-16T08:36:31;4.32;;;2.15;;
577;SDS011;275;48.492;9.214;2023-01-16T08:38:58;5.88;;;2.25;;
577;SDS011;275;48.492;9.214;2023-01-16T08:41:25;4.45;;;2.38;;
577;SDS011;275;48.492;9.214;2023-01-16T08:44:10;4.50;;;2.08;;
577;SDS011;275;48.492;9.214;2023-01-16T08:46:56;3.63;;;2.00;;
577;SDS011;275;48.492;9.214;2023-01-16T08:49:42;2.72;;;1.73;;
577;SDS011;275;48.492;9.214;2023-01-16T08:52:28;3.15;;;1.77;;
577;SDS011;275;48.492;9.214;2023-01-16T08:54:55;3.45;;;1.70;;
577;SDS011;275;48.492;9.214;2023-01-16T08:57:23;4.22;;;2.40;;
577;SDS011;275;48.492;9.214;2023-01-16T08:59:52;3.95;;;1.80;;
577;SDS011;275;48.492;9.214;2023-01-16T09:02:19;2.85;;;1.77;;
577;SDS011;275;48.492;9.214;2023-01-16T09:04:46;3.20;;;1.52;;
577;SDS011;275;48.492;9.214;2023-01-16T09:07:14;4.25;;;1.88;;
577;SDS011;275;48.492;9.214;2023-01-16T09:09:42;2.90;;;1.90;;
577;SDS011;275;48.492;9.214;2023-01-16T09:12:09;4.10;;;1.80;;
577;SDS011;275;48.492;9.214;2023-01-16T09:14:54;2.63;;;1.52;;
577;SDS011;275;48.492;9.214;2023-01-16T09:17:21;3.80;;;2.08;;
577;SDS011;275;48.492;9.214;2023-01-16T09:19:49;3.45;;;1.75;;
577;SDS011;275;48.492;9.214;2023-01-16T09:22:16;2.70;;;1.50;;
577;SDS011;275;48.492;9.214;2023-01-16T09:24:45;2.42;;;1.42;;
577;SDS011;275;48.492;9.214;2023-01-16T09:27:12;2.72;;;1.70;;
577;SDS011;275;48.492;9.214;2023-01-16T09:29:39;5.80;;;1.60;;
577;SDS011;275;48.492;9.214;2023-01-16T09:32:06;2.60;;;1.73;;
577;SDS011;275;48.492;9.214;2023-01-16T09:34:34;3.17;;;1.80;;
577;SDS011;275;48.492;9.214;2023-01-16T09:37:01;2.88;;;1.75;;
577;SDS011;275;48.492;9.214;2023-01-16T09:39:28;4.30;;;1.88;;
577;SDS011;275;48.492;9.214;2023-01-16T09:42:00;2.40;;;1.25;;
577;SDS011;275;48.492;9.214;2023-01-16T09:45:01;2.30;;;1.50;;
577;SDS011;275;48.492;9.214;2023-01-16T09:47:31;3.20;;;1.58;;
577;SDS011;275;48.492;9.214;2023-01-16T09:50:00;2.33;;;1.45;;
577;SDS011;275;48.492;9.214;2023-01-16T09:52:31;3.05;;;1.73;;
577;SDS011;275;48.492;9.214;2023-01-16T09:55:19;4.32;;;2.20;;
577;SDS011;275;48.492;9.214;2023-01-16T09:58:09;3.42;;;1.90;;
577;SDS011;275;48.492;9.214;2023-01-16T10:00:57;3.08;;;1.80;;
577;SDS011;275;48.492;9.214;2023-01-16T10:03:25;2.90;;;1.90;;
577;SDS011;275;48.492;9.214;2023-01-16T10:05:53;3.00;;;1.70;;
577;SDS011;275;48.492;9.214;2023-01-16T10:08:26;2.72;;;1.63;;
577;SDS011;275;48.492;9.214;2023-01-16T10:11:02;2.70;;;1.67;;
577;SDS011;275;48.492;9.214;2023-01-16T10:16:32;3.72;;;2.05;;
577;SDS011;275;48.492;9.214;2023-01-16T10:19:07;3.72;;;2.13;;
577;SDS011;275;48.492;9.214;2023-01-16T10:21:51;3.47;;;1.60;;
577;SDS011;275;48.492;9.214;2023-01-16T10:24:31;5.07;;;3.00;;
577;SDS011;275;48.492;9.214;2023-01-16T10:27:12;3.25;;;2.08;;
577;SDS011;275;48.492;9.214;2023-01-16T10:29:46;3.28;;;2.15;;
577;SDS011;275;48.492;9.214;2023-01-16T10:32:19;3.40;;;1.70;;
577;SDS011;275;48.492;9.214;2023-01-16T10:34:54;4.47;;;1.92;;
577;SDS011;275;48.492;9.214;2023-01-16T10:37:25;3.40;;;2.25;;
577;SDS011;275;48.492;9.214;2023-01-16T10:39:53;2.75;;;1.88;;
577;SDS011;275;48.492;9.214;2023-01-16T10:42:22;2.90;;;1.92;;
577;SDS011;275;48.492;9.214;2023-01-16T10:45:13;4.10;;;1.50;;
577;SDS011;275;48.492;9.214;2023-01-16T10:47:59;2.85;;;1.50;;
577;SDS011;275;48.492;9.214;2023-01-16T10:50:43;2.10;;;0.98;;
577;SDS011;275;48.492;9.214;2023-01-16T10:53:12;2.60;;;1.00;;
577;SDS011;275;48.492;9.214;2023-01-16T10:55:40;2.42;;;0.90;;
577;SDS011;275;48.492;9.214;2023-01-16T10:58:15;2.20;;;0.95;;
577;SDS011;275;48.492;9.214;2023-01-16T11:00:49;2.20;;;1.00;;
577;SDS011;275;48.492;9.214;2023-01-16T11:03:19;2.20;;;0.90;;
577;SDS011;275;48.492;9.214;2023-01-16T11:05:54;2.70;;;1.88;;
577;SDS011;275;48.492;9.214;2023-01-16T11:08:33;2.65;;;0.93;;
577;SDS011;275;48.492;9.214;2023-01-16T11:11:00;2.60;;;1.20;;
577;SDS011;275;48.492;9.214;2023-01-16T11:13:28;2.65;;;1.48;;
577;SDS011;275;48.492;9.214;2023-01-16T11:16:19;3.20;;;1.35;;
577;SDS011;275;48.492;9.214;2023-01-16T11:19:15;2.90;;;1.48;;
577;SDS011;275;48.492;9.214;2023-01-16T11:21:43;3.75;;;1.75;;
577;SDS011;275;48.492;9.214;2023-01-16T11:24:13;3.00;;;1.45;;
577;SDS011;275;48.492;9.214;2023-01-16T11:26:42;2.20;;;1.23;;
577;SDS011;275;48.492;9.214;2023-01-16T11:29:14;3.58;;;1.48;;
577;SDS011;275;48.492;9.214;2023-01-16T11:31:47;2.42;;;1.20;;
577;SDS011;275;48.492;9.214;2023-01-16T11:34:20;3.15;;;1.67;;
577;SDS011;275;48.492;9.214;2023-01-16T11:36:52;2.40;;;1.20;;
577;SDS011;275;48.492;9.214;2023-01-16T11:41:48;2.80;;;1.60;;
577;SDS011;275;48.492;9.214;2023-01-16T11:44:18;2.72;;;1.15;;
577;SDS011;275;48.492;9.214;2023-01-16T11:47:06;3.03;;;1.30;;
577;SDS011;275;48.492;9.214;2023-01-16T11:49:38;2.42;;;1.20;;
577;SDS011;275;48.492;9.214;2023-01-16T11:52:09;2.30;;;1.35;;
577;SDS011;275;48.492;9.214;2023-01-16T11:54:39;2.95;;;1.20;;
577;SDS011;275;48.492;9.214;2023-01-16T12:00:02;2.65;;;1.58;;
577;SDS011;275;48.492;9.214;2023-01-16T12:02:59;3.30;;;1.77;;
577;SDS011;275;48.492;9.214;2023-01-16T12:05:47;2.20;;;1.30;;
577;SDS011;275;48.492;9.214;2023-01-16T12:08:27;3.20;;;1.20;;
577;SDS011;275;48.492;9.214;2023-01-16T12:11:06;2.33;;;1.10;;
577;SDS011;275;48.492;9.214;2023-01-16T12:13:36;2.17;;;1.15;;
577;SDS011;275;48.492;9.214;2023-01-16T12:16:30;2.00;;;1.10;;
577;SDS011;275;48.492;9.214;2023-01-16T12:19:12;2.28;;;1.00;;
577;SDS011;275;48.492;9.214;2023-01-16T12:21:54;2.70;;;1.50;;
577;SDS011;275;48.492;9.214;2023-01-16T12:24:29;2.63;;;1.10;;
577;SDS011;275;48.492;9.214;2023-01-16T12:27:06;2.95;;;1.48;;
577;SDS011;275;48.492;9.214;2023-01-16T12:29:46;2.55;;;1.63;;
577;SDS011;275;48.492;9.214;2023-01-16T12:32:25;2.25;;;1.27;;
577;SDS011;275;48.492;9.214;2023-01-16T12:35:11;3.85;;;1.23;;
577;SDS011;275;48.492;9.214;2023-01-16T12:38:05;3.15;;;1.50;;
577;SDS011;275;48.492;9.214;2023-01-16T12:40:45;2.45;;;1.30;;
577;SDS011;275;48.492;9.214;2023-01-16T12:43:59;2.20;;;1.20;;
577;SDS011;275;48.492;9.214;2023-01-16T12:46:39;2.72;;;1.40;;
577;SDS011;275;48.492;9.214;2023-01-16T12:52:17;2.83;;;1.40;;
577;SDS011;275;48.492;9.214;2023-01-16T12:55:03;2.22;;;1.33;;
577;SDS011;275;48.492;9.214;2023-01-16T12:57:46;2.58;;;1.45;;
577;SDS011;275;48.492;9.214;2023-01-16T13:00:27;2.35;;;0.95;;
577;SDS011;275;48.492;9.214;2023-01-16T13:02:59;2.53;;;1.20;;
577;SDS011;275;48.492;9.214;2023-01-16T13:05:36;2.35;;;1.30;;
577;SDS011;275;48.492;9.214;2023-01-16T13:08:24;2.30;;;1.17;;
577;SDS011;275;48.492;9.214;2023-01-16T13:10:55;2.30;;;1.10;;
577;SDS011;275;48.492;9.214;2023-01-16T13:13:45;2.47;;;1.20;;
577;SDS011;275;48.492;9.214;2023-01-16T13:16:17;2.20;;;0.80;;
577;SDS011;275;48.492;9.214;2023-01-16T13:18:47;4.18;;;1.10;;
577;SDS011;275;48.492;9.214;2023-01-16T13:21:19;3.10;;;1.20;;
577;SDS011;275;48.492;9.214;2023-01-16T13:23:52;2.65;;;1.02;;
577;SDS011;275;48.492;9.214;2023-01-16T13:26:23;2.00;;;1.00;;
577;SDS011;275;48.492;9.214;2023-01-16T13:28:53;4.15;;;1.30;;
577;SDS011;275;48.492;9.214;2023-01-16T13:31:29;2.50;;;0.90;;
577;SDS011;275;48.492;9.214;2023-01-16T13:34:00;2.50;;;0.88;;
577;SDS011;275;48.492;9.214;2023-01-16T13:36:41;2.10;;;1.00;;
577;SDS011;275;48.492;9.214;2023-01-16T13:39:36;2.60;;;1.35;;
577;SDS011;275;48.492;9.214;2023-01-16T13:42:23;2.88;;;0.90;;
577;SDS011;275;48.492;9.214;2023-01-16T13:44:53;2.75;;;1.23;;
577;SDS011;275;48.492;9.214;2023-01-16T13:47:41;2.35;;;0.90;;
577;SDS011;275;48.492;9.214;2023-01-16T13:50:14;2.40;;;1.20;;
577;SDS011;275;48.492;9.214;2023-01-16T13:52:46;2.03;;;0.90;;
577;SDS011;275;48.492;9.214;2023-01-16T13:55:20;3.95;;;0.90;;
577;SDS011;275;48.492;9.214;2023-01-16T13:57:55;3.97;;;1.00;;
577;SDS011;275;48.492;9.214;2023-01-16T14:00:31;2.70;;;1.52;;
577;SDS011;275;48.492;9.214;2023-01-16T14:03:00;2.75;;;1.50;;
577;SDS011;275;48.492;9.214;2023-01-16T14:05:43;2.55;;;1.27;;
577;SDS011;275;48.492;9.214;2023-01-16T14:11:39;3.40;;;1.10;;
577;SDS011;275;48.492;9.214;2023-01-16T14:14:30;2.25;;;1.35;;
577;SDS011;275;48.492;9.214;2023-01-16T14:17:16;2.90;;;1.40;;
577;SDS011;275;48.492;9.214;2023-01-16T14:19:52;2.67;;;1.20;;
577;SDS011;275;48.492;9.214;2023-01-16T14:22:22;4.57;;;1.42;;
577;SDS011;275;48.492;9.214;2023-01-16T14:25:16;2.42;;;1.20;;
577;SDS011;275;48.492;9.214;2023-01-16T14:27:49;2.35;;;1.13;;
577;SDS011;275;48.492;9.214;2023-01-16T14:30:20;2.72;;;1.50;;
577;SDS011;275;48.492;9.214;2023-01-16T14:32:51;3.28;;;1.42;;
577;SDS011;275;48.492;9.214;2023-01-16T14:35:21;2.92;;;1.48;;
577;SDS011;275;48.492;9.214;2023-01-16T14:37:55;2.70;;;1.35;;
577;SDS011;275;48.492;9.214;2023-01-16T14:40:25;3.20;;;1.52;;
577;SDS011;275;48.492;9.214;2023-01-16T14:43:11;2.30;;;1.48;;
577;SDS011;275;48.492;9.214;2023-01-16T14:52:48;5.85;;;4.70;;
577;SDS011;275;48.492;9.214;2023-01-16T14:55:42;2.88;;;2.28;;
577;SDS011;275;48.492;9.214;2023-01-16T14:58:15;3.05;;;1.88;;
577;SDS011;275;48.492;9.214;2023-01-16T15:00:48;3.75;;;2.30;;
577;SDS011;275;48.492;9.214;2023-01-16T15:03:20;3.17;;;1.58;;
577;SDS011;275;48.492;9.214;2023-01-16T15:05:52;2.60;;;1.52;;
577;SDS011;275;48.492;9.214;2023-01-16T15:08:28;2.78;;;1.50;;
577;SDS011;275;48.492;9.214;2023-01-16T15:10:59;3.22;;;1.85;;
577;SDS011;275;48.492;9.214;2023-01-16T15:14:05;4.43;;;1.45;;
577;SDS011;275;48.492;9.214;2023-01-16T15:16:57;3.10;;;1.50;;
577;SDS011;275;48.492;9.214;2023-01-16T15:19:54;3.15;;;1.45;;
577;SDS011;275;48.492;9.214;2023-01-16T15:22:44;5.20;;;1.70;;
577;SDS011;275;48.492;9.214;2023-01-16T15:25:16;2.70;;;1.65;;
577;SDS011;275;48.492;9.214;2023-01-16T15:27:50;3.05;;;1.35;;
577;SDS011;275;48.492;9.214;2023-01-16T15:30:22;2.40;;;1.58;;
577;SDS011;275;48.492;9.214;2023-01-16T15:32:53;2.70;;;1.63;;
577;SDS011;275;48.492;9.214;2023-01-16T15:35:41;2.97;;;1.40;;
577;SDS011;275;48.492;9.214;2023-01-16T15:38:08;2.55;;;1.50;;
577;SDS011;275;48.492;9.214;2023-01-16T15:40:35;3.22;;;1.90;;
577;SDS011;275;48.492;9.214;2023-01-16T15:43:03;2.50;;;1.40;;
577;SDS011;275;48.492;9.214;2023-01-16T15:45:50;3.22;;;1.60;;
577;SDS011;275;48.492;9.214;2023-01-16T15:48:42;3.00;;;1.85;;
577;SDS011;275;48.492;9.214;2023-01-16T15:51:16;2.88;;;2.08;;
577;SDS011;275;48.492;9.214;2023-01-16T15:53:47;2.75;;;1.83;;
577;SDS011;275;48.492;9.214;2023-01-16T15:56:20;3.35;;;1.80;;
577;SDS011;275;48.492;9.214;2023-01-16T15:58:50;3.17;;;1.73;;
577;SDS011;275;48.492;9.214;2023-01-16T16:01:25;2.75;;;1.80;;
577;SDS011;275;48.492;9.214;2023-01-16T16:03:52;3.00;;;1.80;;
577;SDS011;275;48.492;9.214;2023-01-16T16:06:20;5.05;;;3.00;;
577;SDS011;275;48.492;9.214;2023-01-16T16:08:50;4.43;;;2.45;;
577;SDS011;275;48.492;9.214;2023-01-16T16:11:19;3.05;;;1.90;;
577;SDS011;275;48.492;9.214;2023-01-16T16:14:05;3.10;;;2.15;;
577;SDS011;275;48.492;9.214;2023-01-16T16:17:00;2.78;;;1.90;;
577;SDS011;275;48.492;9.214;2023-01-16T16:19:45;3.78;;;2.25;;
577;SDS011;275;48.492;9.214;2023-01-16T16:22:13;3.92;;;2.63;;
577;SDS011;275;48.492;9.214;2023-01-16T16:25:16;2.92;;;2.05;;
577;SDS011;275;48.492;9.214;2023-01-16T16:27:50;3.25;;;2.30;;
577;SDS011;275;48.492;9.214;2023-01-16T16:30:18;3.35;;;2.35;;
577;SDS011;275;48.492;9.214;2023-01-16T16:32:50;3.67;;;2.88;;
577;SDS011;275;48.492;9.214;2023-01-16T16:35:19;5.20;;;2.60;;
577;SDS011;275;48.492;9.214;2023-01-16T16:37:50;3.25;;;2.20;;
577;SDS011;275;48.492;9.214;2023-01-16T16:40:17;2.90;;;1.95;;
577;SDS011;275;48.492;9.214;2023-01-16T16:42:48;3.35;;;2.25;;
577;SDS011;275;48.492;9.214;2023-01-16T16:45:21;3.00;;;2.25;;
577;SDS011;275;48.492;9.214;2023-01-16T16:50:50;3.72;;;2.30;;